Time;durP1;ratioP1;P1;durP2;ratioP2;P2;SDS_P1;SDS_P2;PMS_P1;PMS_P2;Temp;Humidity;BMP_temperature;BMP_pressure;BME280_temperature;BME280_humidity;BME280_pressure;Samples;Min_cycle;Max_cycle;Signal;HPM_P1;HPM_P2
2023/10/09 00:00:17;;;;;;;37.63;17.33;;;15.90;99.90;;;16.01;82.82;101006.91;4999868;28;20582;-83
2023/10/09 00:02:46;;;;;;;38.92;16.77;;;15.90;99.90;;;16.02;82.32;100998.56;5017524;28;20037;-83
2023/10/09 00:05:23;;;;;;;36.72;16.02;;;15.80;99.90;;;16.03;82.29;100999.41;5001434;28;20046;-83
2023/10/09 00:07:53;;;;;;;36.13;16.08;;;15.80;99.90;;;16.04;82.04;101004.53;5017892;28;20069;-84
2023/10/09 00:10:21;;;;;;;34.70;16.40;;;15.80;99.90;;;16.08;81.40;101002.19;5017765;28;20099;-83
2023/10/09 00:12:49;;;;;;;34.03;15.50;;;15.90;99.90;;;16.09;81.55;101001.13;5017563;28;20038;-84
2023/10/09 00:15:18;;;;;;;30.65;14.20;;;15.90;99.90;;;16.09;81.29;101010.03;5001536;28;20042;-83
2023/10/09 00:17:47;;;;;;;32.13;14.95;;;15.90;99.90;;;16.09;80.96;100998.44;5017526;28;20113;-83
2023/10/09 00:20:23;;;;;;;27.80;14.23;;;15.80;99.90;;;16.10;80.95;100994.69;5017221;28;20117;-83
2023/10/09 00:22:52;;;;;;;30.33;14.75;;;15.80;99.90;;;16.09;80.95;100990.38;4984254;28;20046;-83
2023/10/09 00:25:23;;;;;;;28.60;14.90;;;15.80;99.90;;;16.09;80.98;101004.66;5013426;28;20049;-83
2023/10/09 00:27:50;;;;;;;26.92;13.68;;;15.80;99.90;;;16.04;82.01;100999.16;5015511;28;20053;-83
2023/10/09 00:30:21;;;;;;;28.63;13.98;;;15.80;99.90;;;16.07;81.41;100987.13;5017892;28;20513;-84
2023/10/09 00:32:59;;;;;;;28.50;13.27;;;15.90;99.90;;;16.08;81.32;100994.94;5037495;28;20132;-83
2023/10/09 00:35:41;;;;;;;28.48;13.65;;;15.90;99.90;;;16.11;81.26;100993.66;5039822;28;20036;-83
2023/10/09 00:38:22;;;;;;;29.20;13.88;;;15.90;99.90;;;16.10;81.23;100989.31;5038495;28;20057;-84
2023/10/09 00:40:57;;;;;;;25.50;12.82;;;16.00;99.90;;;16.12;81.20;100979.16;5003511;28;20041;-83
2023/10/09 00:43:28;;;;;;;25.45;13.10;;;15.90;99.90;;;16.14;80.88;100980.53;5027586;28;20107;-83
2023/10/09 00:45:58;;;;;;;30.63;13.52;;;15.90;99.90;;;16.15;80.63;100978.66;5034147;28;20050;-83
2023/10/09 00:48:31;;;;;;;27.80;12.98;;;15.90;99.90;;;16.15;80.58;100970.59;5035774;28;20048;-83
2023/10/09 00:51:00;;;;;;;24.52;13.23;;;15.90;99.90;;;16.17;80.56;100969.31;5037558;28;20073;-83
2023/10/09 00:53:32;;;;;;;29.52;13.93;;;15.90;99.90;;;16.15;80.87;100970.59;5037373;28;20072;-83
2023/10/09 00:56:11;;;;;;;21.52;12.73;;;15.90;99.90;;;16.11;81.20;100975.66;5021026;28;20055;-83
2023/10/09 00:58:40;;;;;;;26.95;12.57;;;15.90;99.90;;;16.14;80.99;100975.16;5037309;28;20052;-83
2023/10/09 01:01:15;;;;;;;27.77;12.00;;;15.90;99.90;;;16.14;80.86;100964.41;5002038;28;20045;-83
2023/10/09 01:03:44;;;;;;;25.25;12.45;;;15.90;99.90;;;16.16;80.84;100951.53;5028032;28;20049;-83
2023/10/09 01:06:20;;;;;;;24.58;12.32;;;15.90;99.90;;;16.17;80.56;100949.66;5037371;28;20052;-83
2023/10/09 01:09:08;;;;;;;21.20;11.60;;;15.90;99.90;;;16.15;80.57;100941.00;5037691;28;20105;-84
2023/10/09 01:11:48;;;;;;;25.20;13.15;;;15.90;99.90;;;16.11;80.76;100945.22;5037459;28;20048;-83
2023/10/09 01:14:16;;;;;;;21.48;11.90;;;15.90;99.90;;;16.14;80.58;100942.88;5037728;28;20046;-83
2023/10/09 01:16:46;;;;;;;23.90;11.60;;;15.90;99.90;;;16.11;80.56;100945.22;5039548;28;20493;-83
2023/10/09 01:19:20;;;;;;;24.40;12.18;;;15.90;99.90;;;16.08;80.86;100953.75;5039760;28;20041;-83
2023/10/09 01:21:50;;;;;;;26.25;12.13;;;15.90;99.90;;;16.09;80.90;100934.69;5053864;28;20052;-83
2023/10/09 01:24:20;;;;;;;20.92;11.45;;;15.90;99.90;;;16.09;80.58;100945.44;5037378;28;20045;-84
2023/10/09 01:26:49;;;;;;;19.05;11.85;;;15.90;99.90;;;16.12;80.58;100942.28;5038711;28;20033;-83
2023/10/09 01:29:19;;;;;;;23.50;11.38;;;15.90;99.90;;;16.12;80.16;100938.78;5038474;28;20049;-83
2023/10/09 01:31:54;;;;;;;24.38;11.68;;;15.90;99.90;;;16.09;80.63;100945.44;5038877;28;20037;-83
2023/10/09 01:34:38;;;;;;;21.98;12.18;;;15.90;99.90;;;16.09;80.59;100940.06;5054198;28;20064;-83
2023/10/09 01:37:11;;;;;;;20.98;11.35;;;15.90;99.90;;;16.12;80.25;100938.78;5022775;28;20063;-83
2023/10/09 01:39:42;;;;;;;21.88;11.63;;;15.90;99.90;;;16.14;79.96;100948.25;5038409;28;20451;-83
2023/10/09 01:42:10;;;;;;;18.67;10.50;;;15.90;99.90;;;16.13;80.23;100946.63;5042215;28;20110;-83
2023/10/09 01:44:43;;;;;;;25.25;11.05;;;15.90;99.90;;;16.15;79.90;100952.59;5018576;28;20042;-83
2023/10/09 01:47:14;;;;;;;21.55;10.48;;;15.90;99.90;;;16.14;79.95;100958.19;5038506;28;20052;-83
2023/10/09 01:49:43;;;;;;;18.83;9.32;;;15.90;99.90;;;16.14;80.00;100948.25;5037011;28;20069;-83
2023/10/09 01:52:15;;;;;;;15.88;9.80;;;15.90;99.90;;;16.09;79.83;100940.06;5038286;28;20123;-83
2023/10/09 01:54:48;;;;;;;22.75;10.60;;;15.90;99.90;;;16.10;79.58;100948.94;5036951;28;20049;-83
2023/10/09 01:57:22;;;;;;;17.35;9.95;;;15.90;99.90;;;16.09;79.83;100950.00;5019737;28;20042;-84
2023/10/09 01:59:53;;;;;;;20.77;10.23;;;15.90;99.90;;;16.09;79.50;100945.44;5036782;28;20044;-83
2023/10/09 02:02:33;;;;;;;22.38;10.65;;;15.90;99.90;;;16.08;79.46;100948.38;5033368;28;20037;-83
2023/10/09 02:05:23;;;;;;;18.63;10.00;;;15.90;99.90;;;16.09;79.35;100953.53;5037549;28;20046;-83
2023/10/09 02:07:52;;;;;;;21.70;11.25;;;15.90;99.90;;;16.10;79.05;100946.25;5033999;28;20049;-83
2023/10/09 02:10:25;;;;;;;20.15;10.45;;;15.90;99.90;;;16.09;79.19;100958.09;5033288;28;20045;-83
2023/10/09 02:12:57;;;;;;;19.48;11.20;;;15.80;99.90;;;16.08;79.42;100948.38;5021275;28;20048;-83
2023/10/09 02:18:16;;;;;;;19.08;11.45;;;15.90;99.90;;;16.05;79.42;100944.28;5039287;28;20413;-84
2023/10/09 02:20:45;;;;;;;20.42;11.07;;;15.90;99.90;;;16.02;79.58;100935.88;5037055;28;20056;-83
2023/10/09 02:23:14;;;;;;;24.42;11.25;;;15.90;99.90;;;16.00;79.58;100936.09;5017657;28;20045;-83
2023/10/09 02:25:44;;;;;;;19.90;10.40;;;15.90;99.90;;;15.99;79.79;100934.47;4995628;28;20046;-83
2023/10/09 02:28:17;;;;;;;19.55;10.85;;;15.80;99.90;;;15.97;80.09;100931.19;5033781;28;20073;-83
2023/10/09 02:30:47;;;;;;;19.10;10.40;;;15.90;99.90;;;15.97;80.26;100928.50;5052431;28;20058;-83
2023/10/09 02:33:18;;;;;;;17.13;9.80;;;15.80;99.90;;;15.96;80.50;100930.38;5018083;28;20037;-83
2023/10/09 02:35:51;;;;;;;16.70;9.68;;;15.80;99.90;;;16.00;80.08;100929.91;5028085;28;20033;-84
2023/10/09 02:38:22;;;;;;;23.00;11.20;;;15.80;99.90;;;16.01;80.02;100936.94;5053419;28;20049;-83
2023/10/09 02:41:17;;;;;;;22.98;10.88;;;15.80;99.90;;;16.01;80.03;100927.00;5037343;28;20049;-83
2023/10/09 02:43:50;;;;;;;22.20;11.02;;;15.80;99.90;;;16.00;80.35;100936.09;5038072;28;20044;-83
2023/10/09 02:46:21;;;;;;;22.52;10.75;;;15.80;99.90;;;16.00;80.28;100928.03;5038717;28;20091;-84
2023/10/09 02:48:51;;;;;;;19.38;10.68;;;15.80;99.90;;;15.98;80.56;100929.31;5036292;28;20535;-84
2023/10/09 02:51:32;;;;;;;19.85;10.35;;;15.80;99.90;;;16.00;80.52;100935.28;5033045;28;20077;-83
2023/10/09 02:54:07;;;;;;;20.60;11.13;;;15.80;99.90;;;16.00;79.94;100924.50;5029737;28;20077;-85
2023/10/09 02:56:42;;;;;;;23.05;11.20;;;15.90;99.90;;;15.98;80.29;100914.00;5036493;28;20418;-83
2023/10/09 02:59:10;;;;;;;22.02;11.70;;;15.90;99.90;;;15.99;80.47;100931.78;5018965;28;20520;-83
2023/10/09 03:01:42;;;;;;;19.35;10.82;;;15.90;99.90;;;15.98;80.43;100929.31;5027492;28;20038;-84
2023/10/09 03:04:14;;;;;;;22.40;11.23;;;15.90;99.90;;;16.00;80.33;100921.81;5036104;28;20099;-83
2023/10/09 03:06:49;;;;;;;21.25;11.23;;;15.90;99.90;;;16.03;79.98;100913.28;5037519;28;20045;-83
2023/10/09 03:09:18;;;;;;;19.70;10.73;;;15.90;99.90;;;16.01;80.28;100910.03;5036578;28;20055;-83
2023/10/09 03:11:53;;;;;;;24.52;9.93;;;15.90;99.90;;;16.02;80.26;100911.66;5036622;28;20041;-83
2023/10/09 03:14:20;;;;;;;20.42;10.15;;;15.90;99.90;;;16.03;80.14;100915.97;5036875;28;20111;-83
2023/10/09 03:16:48;;;;;;;21.73;10.27;;;15.90;99.90;;;16.07;80.22;100917.16;5036374;28;20116;-83
2023/10/09 03:19:16;;;;;;;20.08;10.35;;;15.90;99.90;;;16.09;80.01;100906.97;5019500;28;20049;-83
2023/10/09 03:21:45;;;;;;;17.38;10.13;;;16.00;99.90;;;16.08;79.81;100898.06;5036896;28;20056;-83
2023/10/09 03:24:12;;;;;;;21.05;10.38;;;16.00;99.90;;;16.07;79.84;100909.09;5037223;28;20049;-84
2023/10/09 03:26:40;;;;;;;19.60;10.27;;;16.00;99.90;;;16.05;79.95;100906.59;5021388;28;20056;-83
2023/10/09 03:29:37;;;;;;;20.55;10.27;;;16.00;99.90;;;16.08;79.96;100897.25;5037409;28;20076;-83
2023/10/09 03:32:06;;;;;;;20.50;10.32;;;16.00;99.90;;;16.04;79.96;100894.22;5038733;28;20045;-83
2023/10/09 03:34:36;;;;;;;19.50;9.38;;;16.00;99.90;;;16.05;80.07;100897.72;5005538;28;20084;-83
2023/10/09 03:37:20;;;;;;;19.13;10.25;;;16.00;99.90;;;16.09;79.67;100897.00;5041035;28;20045;-83
2023/10/09 03:39:51;;;;;;;19.58;9.70;;;16.00;99.90;;;16.11;79.63;100894.09;5042306;28;20049;-83
2023/10/09 03:42:20;;;;;;;19.23;10.25;;;16.00;99.90;;;16.10;79.81;100889.75;5042398;28;20104;-83
2023/10/09 03:44:53;;;;;;;22.15;10.20;;;16.00;99.90;;;16.08;79.75;100873.03;5041667;28;20114;-83
2023/10/09 03:47:22;;;;;;;19.35;9.95;;;16.00;99.90;;;16.08;79.77;100870.34;5036961;28;20175;-83
2023/10/09 03:49:51;;;;;;;19.20;8.98;;;16.00;99.90;;;16.10;79.87;100868.22;5042373;28;20053;-83
2023/10/09 03:52:25;;;;;;;25.17;9.65;;;16.00;99.90;;;16.09;79.54;100861.22;5040704;28;20105;-83
2023/10/09 03:54:53;;;;;;;24.95;9.88;;;16.00;99.90;;;16.11;79.45;100862.63;5009991;28;20046;-83
2023/10/09 03:57:21;;;;;;;22.00;10.15;;;16.00;99.90;;;16.11;79.53;100868.00;5042069;28;20092;-83
2023/10/09 03:59:55;;;;;;;18.73;9.25;;;16.00;99.90;;;16.13;79.57;100870.44;5042710;28;20041;-83
2023/10/09 04:02:22;;;;;;;18.52;9.32;;;16.00;99.90;;;16.13;79.46;100871.25;5042666;28;20067;-83
2023/10/09 04:04:51;;;;;;;17.73;9.32;;;16.00;99.90;;;16.09;79.63;100864.72;5025102;28;20076;-83
2023/10/09 04:07:19;;;;;;;18.80;9.38;;;16.00;99.90;;;16.12;79.64;100874.22;5040992;28;20132;-83
2023/10/09 04:09:48;;;;;;;19.25;9.32;;;16.00;99.90;;;16.12;79.60;100868.81;5037621;28;20038;-83
2023/10/09 04:12:24;;;;;;;17.58;9.13;;;16.00;99.90;;;16.14;79.55;100872.91;5038283;28;20057;-83
2023/10/09 04:14:57;;;;;;;17.80;8.93;;;16.00;99.90;;;16.16;79.32;100870.81;5027137;28;20111;-83
2023/10/09 04:17:34;;;;;;;17.13;9.52;;;16.00;99.90;;;16.18;79.09;100862.47;5025500;28;20073;-83
2023/10/09 04:22:59;;;;;;;18.95;9.73;;;16.00;99.90;;;16.18;79.01;100859.78;5025831;28;20168;-83
2023/10/09 04:25:29;;;;;;;17.55;9.30;;;16.00;99.90;;;16.18;79.11;100865.19;5041414;28;20038;-83
2023/10/09 04:28:08;;;;;;;19.05;9.23;;;16.00;99.90;;;16.17;79.19;100856.28;5041069;28;20049;-83
2023/10/09 04:30:42;;;;;;;18.85;9.10;;;16.00;99.90;;;16.20;79.07;100846.91;5041346;28;20472;-83
2023/10/09 04:33:27;;;;;;;16.55;9.18;;;16.00;99.90;;;16.19;78.96;100856.03;5043482;28;20049;-83
2023/10/09 04:38:37;;;;;;;17.67;9.80;;;16.00;99.90;;;16.09;79.25;100853.16;5042779;28;20041;-83
2023/10/09 04:41:08;;;;;;;18.48;9.30;;;16.00;99.90;;;16.09;79.07;100850.44;5038138;28;20133;-83
2023/10/09 04:43:34;;;;;;;21.70;9.75;;;16.00;99.90;;;16.08;79.32;100851.50;5047827;28;20037;-83
2023/10/09 04:46:10;;;;;;;16.80;8.45;;;16.00;99.90;;;16.11;79.52;100848.34;5040631;28;20084;-83
2023/10/09 04:48:38;;;;;;;18.17;9.48;;;16.00;99.90;;;16.04;79.45;100855.72;5041560;28;20141;-83
2023/10/09 04:51:21;;;;;;;17.27;9.10;;;16.00;99.90;;;16.10;79.49;100852.09;5041934;28;20065;-83
2023/10/09 04:53:59;;;;;;;18.02;9.52;;;16.00;99.90;;;16.09;79.54;100847.75;5041724;28;20045;-83
2023/10/09 04:56:31;;;;;;;18.85;9.43;;;16.00;99.90;;;16.10;79.36;100854.78;5042000;28;20120;-84
2023/10/09 04:59:08;;;;;;;16.85;9.10;;;16.00;99.90;;;16.13;79.32;100844.34;5025422;28;20049;-83
2023/10/09 05:01:45;;;;;;;17.33;9.40;;;16.10;99.90;;;16.15;79.17;100853.03;5042611;28;20111;-83
2023/10/09 05:04:29;;;;;;;16.88;9.32;;;16.00;99.90;;;16.18;78.76;100862.47;5042028;28;20053;-83
2023/10/09 05:06:57;;;;;;;17.23;9.32;;;16.00;99.90;;;16.19;79.00;100864.94;5026851;28;20037;-83
2023/10/09 05:09:24;;;;;;;18.67;8.95;;;16.00;99.90;;;16.22;78.90;100855.56;5040594;28;20045;-83
2023/10/09 05:12:09;;;;;;;16.42;8.85;;;16.00;99.90;;;16.18;78.81;100841.78;5041454;28;20045;-84
2023/10/09 05:14:38;;;;;;;23.00;10.90;;;16.00;99.90;;;16.13;79.10;100832.78;5025099;28;20054;-84
2023/10/09 05:17:15;;;;;;;17.73;9.50;;;16.00;99.90;;;16.15;79.02;100836.03;5039353;28;20038;-83
2023/10/09 05:19:54;;;;;;;16.42;9.40;;;16.00;99.90;;;16.16;79.10;100824.25;5033326;28;20080;-83
2023/10/09 05:25:39;;;;;;;;;;;16.00;99.90;;;16.19;79.24;100837.19;5018624;28;20068;-84
2023/10/09 05:28:25;;;;;;;17.73;9.63;;;16.00;99.90;;;16.17;79.21;100850.91;5041770;28;19951;-83
2023/10/09 05:31:02;;;;;;;19.67;9.63;;;16.00;99.90;;;16.14;79.24;100874.78;5039836;28;20417;-83
2023/10/09 05:33:33;;;;;;;19.50;10.25;;;16.00;99.90;;;16.15;79.31;100868.31;5041984;28;20045;-83
2023/10/09 05:36:17;;;;;;;19.10;9.93;;;16.00;99.90;;;16.16;79.27;100886.94;5040962;28;20132;-84
2023/10/09 05:38:58;;;;;;;18.40;9.88;;;16.00;99.90;;;16.14;79.22;100904.38;5011700;28;20072;-85
2023/10/09 05:41:47;;;;;;;19.35;9.65;;;16.00;99.90;;;16.18;79.20;100900.16;5046717;28;20049;-82
2023/10/09 06:03:53;;;;;;;19.67;10.30;;;16.00;99.90;;;16.18;79.28;100917.13;5036653;28;20053;-83
2023/10/09 06:06:42;;;;;;;20.35;10.00;;;16.00;99.90;;;16.18;79.14;100924.38;5034668;28;20119;-86
2023/10/09 06:14:49;;;;;;;;;;;16.10;99.90;;;16.23;79.21;100929.88;5017511;28;20142;-85
2023/10/09 06:17:23;;;;;;;18.77;9.63;;;16.10;99.90;;;16.18;79.27;100940.53;5031785;28;19928;-86
2023/10/09 06:19:58;;;;;;;18.77;10.30;;;16.10;99.90;;;16.16;79.46;100945.34;5024633;28;20056;-85
2023/10/09 06:22:56;;;;;;;18.83;10.73;;;16.10;99.90;;;16.17;79.45;100947.78;5034416;28;20045;-84
2023/10/09 06:25:32;;;;;;;20.23;9.82;;;16.10;99.90;;;16.18;79.79;100956.69;5036482;28;20046;-83
2023/10/09 06:28:01;;;;;;;20.00;9.45;;;16.10;99.90;;;16.19;79.84;100952.91;5046355;28;20096;-84
2023/10/09 06:30:28;;;;;;;17.55;10.02;;;16.10;99.90;;;16.20;79.60;100958.09;5022413;28;20038;-84
2023/10/09 06:33:04;;;;;;;19.05;10.30;;;16.10;99.90;;;16.22;79.54;100950.59;5034895;28;20095;-85
2023/10/09 06:35:35;;;;;;;20.38;9.20;;;16.10;99.90;;;16.26;79.30;100960.88;5038821;28;20056;-83
2023/10/09 06:38:23;;;;;;;18.67;9.23;;;16.20;99.90;;;16.29;79.09;100950.44;5035066;28;20046;-82
2023/10/09 06:43:42;;;;;;;19.98;10.27;;;16.20;99.90;;;16.30;79.24;100957.50;5037065;28;20500;-82
2023/10/09 06:49:28;;;;;;;26.42;10.10;;;16.20;99.90;;;16.28;79.64;100946.13;5042268;28;20046;-82
2023/10/09 06:51:55;;;;;;;22.60;10.80;;;16.20;99.90;;;16.25;79.78;100941.22;5032123;28;20051;-83
2023/10/09 06:54:27;;;;;;;18.60;10.45;;;16.20;99.90;;;16.28;80.05;100939.94;5020789;28;20046;-81
2023/10/09 07:02:26;;;;;;;17.33;9.52;;;16.20;99.90;;;16.30;80.42;100945.88;5010671;28;20487;-82
2023/10/09 07:05:10;;;;;;;17.05;10.18;;;16.20;99.90;;;16.30;80.47;100965.56;5029963;28;20033;-81
2023/10/09 07:07:50;;;;;;;20.42;10.73;;;16.20;99.90;;;16.31;80.71;100950.22;5041663;28;20049;-82
2023/10/09 07:10:32;;;;;;;18.77;10.38;;;16.20;99.90;;;16.28;81.09;100946.13;5011353;28;20057;-81
2023/10/09 07:13:01;;;;;;;22.98;10.85;;;16.20;99.90;;;16.29;81.13;100955.00;5032231;28;20042;-82
2023/10/09 07:18:40;;;;;;;16.10;9.75;;;16.20;99.90;;;16.37;81.16;100951.97;5007465;28;20073;-82
2023/10/09 07:21:11;;;;;;;22.08;11.85;;;16.30;99.90;;;16.38;81.22;100962.47;5029009;28;20038;-82
2023/10/09 07:23:48;;;;;;;19.27;11.05;;;16.30;99.90;;;16.38;81.51;100962.47;5041174;28;20061;-82
2023/10/09 07:26:23;;;;;;;18.90;10.68;;;16.30;99.90;;;16.35;81.18;100970.25;5036835;28;20140;-81
2023/10/09 07:29:00;;;;;;;23.50;12.07;;;16.30;99.90;;;16.35;81.10;100972.94;5029237;28;20037;-82
2023/10/09 07:31:39;;;;;;;20.90;11.38;;;16.30;99.90;;;16.35;80.96;100987.22;5020144;28;20071;-84
2023/10/09 07:34:30;;;;;;;20.90;11.73;;;16.30;99.90;;;16.38;81.39;100980.50;5032308;28;20045;-82
2023/10/09 07:36:57;;;;;;;22.23;11.98;;;16.30;99.90;;;16.41;81.36;100970.09;5039591;28;20046;-82
2023/10/09 07:39:34;;;;;;;21.50;11.80;;;16.40;99.90;;;16.45;80.94;100941.66;5044984;28;20049;-82
2023/10/09 07:42:26;;;;;;;26.52;11.88;;;16.40;99.90;;;16.44;80.60;100913.06;5044697;28;20049;-82
2023/10/09 07:44:55;;;;;;;19.23;11.75;;;16.40;99.90;;;16.42;81.16;100912.50;5028522;28;20041;-81
2023/10/09 07:47:45;;;;;;;22.08;11.60;;;16.50;99.90;;;16.43;80.93;100903.34;5039522;28;20049;-81
2023/10/09 07:50:16;;;;;;;22.05;11.82;;;16.50;99.90;;;16.47;81.22;100893.75;5037979;28;20061;-82
2023/10/09 07:52:49;;;;;;;23.23;12.10;;;16.50;99.90;;;16.55;81.02;100924.06;5041713;28;20475;-82
2023/10/09 07:55:39;;;;;;;20.15;11.18;;;16.60;99.90;;;16.56;81.15;100925.69;5024578;28;20048;-82
2023/10/09 07:58:11;;;;;;;20.65;10.90;;;16.60;99.90;;;16.53;80.96;100924.28;5037351;28;20042;-82
2023/10/09 08:01:06;;;;;;;21.08;11.15;;;16.60;99.90;;;16.53;81.08;100924.28;5044923;28;20080;-82
2023/10/09 08:03:33;;;;;;;19.88;10.70;;;16.60;99.90;;;16.54;81.02;100943.94;5043432;28;20063;-82
2023/10/09 08:06:37;;;;;;;19.75;11.43;;;16.60;99.90;;;16.51;80.80;100944.44;5044271;28;20041;-82
2023/10/09 08:11:59;;;;;;;23.65;11.82;;;16.60;99.90;;;16.56;80.50;100955.31;5031090;28;20054;-81
2023/10/09 08:14:48;;;;;;;18.27;11.60;;;16.60;99.90;;;16.60;80.65;100995.00;5034638;28;20038;-82
2023/10/09 08:17:20;;;;;;;26.42;12.30;;;16.60;99.90;;;16.64;80.16;100998.84;5021675;28;20053;-82
2023/10/09 08:19:57;;;;;;;22.10;11.63;;;16.70;99.90;;;16.69;80.64;101000.84;5042829;28;20046;-81
2023/10/09 08:22:50;;;;;;;23.10;12.07;;;16.70;99.90;;;16.69;81.04;101008.91;5039251;28;20056;-82
2023/10/09 08:25:31;;;;;;;24.55;13.00;;;16.80;99.90;;;16.69;80.41;101015.13;5028558;28;20577;-81
2023/10/09 08:31:02;;;;;;;22.50;12.50;;;16.80;99.90;;;16.74;80.47;101006.34;5041251;28;20049;-81
2023/10/09 08:33:42;;;;;;;22.15;11.40;;;16.80;99.90;;;16.75;80.49;100991.81;5025335;28;20048;-81
2023/10/09 08:36:14;;;;;;;24.75;12.90;;;16.80;99.90;;;16.80;80.49;100977.63;5021452;28;20046;-82
2023/10/09 08:38:43;;;;;;;22.30;12.73;;;16.90;99.90;;;16.80;80.62;100988.41;5029268;28;20049;-82
2023/10/09 08:41:18;;;;;;;24.55;12.43;;;16.90;99.90;;;16.76;80.63;100979.97;5040999;28;20133;-81
2023/10/09 08:43:52;;;;;;;21.52;12.10;;;16.90;99.90;;;16.76;80.69;100982.69;5032414;28;20108;-82
2023/10/09 08:46:27;;;;;;;22.55;12.48;;;16.90;99.90;;;16.76;81.06;100971.91;5036368;28;20065;-82
2023/10/09 08:48:57;;;;;;;21.90;12.95;;;16.80;99.90;;;16.74;81.50;100968.66;5024691;28;20417;-82
2023/10/09 08:51:26;;;;;;;26.20;13.70;;;16.80;99.90;;;16.76;81.75;100981.88;5041805;28;20460;-82
2023/10/09 08:53:54;;;;;;;23.90;12.57;;;16.80;99.90;;;16.78;81.95;100956.31;5024323;28;20049;-82
2023/10/09 08:56:25;;;;;;;25.08;12.95;;;16.80;99.90;;;16.81;82.11;100936.16;5026690;28;20046;-81
2023/10/09 08:58:55;;;;;;;27.00;13.98;;;16.80;99.90;;;16.79;82.17;100914.88;5026419;28;20040;-82
2023/10/09 09:01:24;;;;;;;21.80;13.48;;;16.80;99.90;;;16.80;82.62;100886.03;5033965;28;20057;-82
2023/10/09 09:03:55;;;;;;;29.75;13.23;;;16.80;99.90;;;16.81;82.82;100861.53;5034704;28;20069;-82
2023/10/09 09:06:24;;;;;;;32.67;13.95;;;16.90;99.90;;;16.81;82.50;100848.06;5038996;28;20053;-80
2023/10/09 09:08:54;;;;;;;23.73;13.27;;;16.90;99.90;;;16.83;82.41;100853.22;5041054;28;20045;-82
2023/10/09 09:11:30;;;;;;;25.52;13.30;;;16.90;99.90;;;16.88;83.15;100850.59;5035497;28;20136;-82
2023/10/09 09:14:07;;;;;;;22.15;12.32;;;16.90;99.90;;;16.96;84.10;100851.03;5024366;28;20060;-82
2023/10/09 09:16:44;;;;;;;21.50;13.40;;;17.00;99.90;;;17.02;84.14;100848.41;5033160;28;20113;-82
2023/10/09 09:19:18;;;;;;;20.40;12.50;;;17.10;99.90;;;17.07;83.13;100859.28;5035294;28;20069;-82
2023/10/09 09:21:54;;;;;;;22.15;13.55;;;17.20;99.90;;;17.12;83.58;100876.34;5031060;28;20046;-82
2023/10/09 09:24:30;;;;;;;23.95;13.10;;;17.20;99.90;;;17.21;82.96;100903.72;5029922;28;20034;-81
2023/10/09 09:27:12;;;;;;;23.50;12.30;;;17.40;99.90;;;17.28;82.37;100908.97;5039799;28;20041;-81
2023/10/09 09:29:52;;;;;;;25.02;12.65;;;17.40;99.90;;;17.36;82.80;100901.25;5028899;28;20137;-81
2023/10/09 09:32:35;;;;;;;22.90;12.98;;;17.50;99.90;;;17.46;82.43;100881.72;5039668;28;20045;-82
2023/10/09 09:35:04;;;;;;;22.52;12.82;;;17.60;99.90;;;17.51;81.86;100877.22;5026829;28;20089;-81
2023/10/09 09:37:50;;;;;;;24.58;13.18;;;17.70;99.90;;;17.56;81.71;100871.09;5032333;28;20053;-82
2023/10/09 09:40:29;;;;;;;22.20;12.48;;;17.80;99.90;;;17.59;81.37;100877.88;5034842;28;20104;-82
2023/10/09 09:43:05;;;;;;;23.33;12.55;;;17.80;99.90;;;17.62;81.86;100878.22;5026814;28;20517;-82
2023/10/09 09:45:34;;;;;;;22.48;12.38;;;17.80;99.90;;;17.68;82.68;100898.00;5024486;28;20041;-81
2023/10/09 09:48:06;;;;;;;20.65;12.50;;;17.90;99.90;;;17.67;81.86;100897.19;5039540;28;20521;-84
2023/10/09 09:50:38;;;;;;;22.15;11.82;;;17.90;99.90;;;17.68;80.75;100911.47;5036111;28;20045;-84
2023/10/09 09:53:08;;;;;;;27.52;12.57;;;17.90;99.90;;;17.74;81.36;100911.31;5033608;28;20072;-84
2023/10/09 09:55:41;;;;;;;25.33;11.77;;;18.00;99.90;;;17.79;81.27;100921.38;5000859;28;20049;-84
2023/10/09 09:58:20;;;;;;;21.42;11.35;;;18.00;99.90;;;17.87;80.75;100912.88;5037430;28;20041;-82
2023/10/09 10:00:53;;;;;;;22.73;11.35;;;18.10;99.90;;;17.93;79.71;100927.25;5038716;28;20551;-82
2023/10/09 10:03:27;;;;;;;19.17;10.85;;;18.20;99.90;;;17.95;78.85;100934.00;5038146;28;20053;-82
2023/10/09 10:05:58;;;;;;;20.63;11.20;;;18.20;99.90;;;17.97;78.38;100940.00;5038743;28;20100;-82
2023/10/09 10:08:32;;;;;;;20.45;11.60;;;18.20;99.90;;;18.00;77.78;100949.47;5018361;28;20049;-84
2023/10/09 10:11:05;;;;;;;23.08;11.00;;;18.30;99.90;;;18.06;76.93;100953.88;5033127;28;20508;-84
2023/10/09 10:14:05;;;;;;;17.77;10.73;;;18.30;99.90;;;18.10;76.91;100944.19;5049172;28;20132;-84
2023/10/09 10:16:35;;;;;;;21.60;11.65;;;18.40;99.90;;;18.09;76.50;100947.97;5032191;28;20056;-84
2023/10/09 10:19:21;;;;;;;18.80;10.88;;;18.30;99.90;;;18.09;77.06;100952.56;5028097;28;20037;-84
2023/10/09 10:21:49;;;;;;;19.08;11.00;;;18.30;99.90;;;18.10;75.75;100954.19;5030648;28;20050;-83
2023/10/09 10:25:02;;;;;;;21.33;11.73;;;18.30;99.90;;;18.12;76.33;100952.06;5019151;28;20128;-84
2023/10/09 10:27:32;;;;;;;23.20;11.23;;;18.40;99.90;;;18.11;75.71;100963.94;5025613;28;20396;-83
2023/10/09 10:30:34;;;;;;;20.60;11.77;;;18.40;99.90;;;18.11;76.08;100953.13;5031005;28;20034;-83
2023/10/09 10:33:15;;;;;;;18.00;10.90;;;18.30;99.90;;;18.10;76.34;100946.91;5020532;28;20497;-83
2023/10/09 10:35:52;;;;;;;21.17;12.00;;;18.30;99.90;;;18.12;76.57;100944.78;5023434;28;20045;-84
2023/10/09 10:38:36;;;;;;;21.27;11.65;;;18.30;99.90;;;18.15;76.86;100954.25;4996952;28;20038;-84
2023/10/09 10:41:12;;;;;;;25.42;11.88;;;18.40;99.90;;;18.16;77.09;100964.81;5027139;28;20046;-83
2023/10/09 10:46:37;;;;;;;24.08;11.02;;;18.40;99.90;;;18.26;77.77;100962.25;5026660;28;20432;-82
2023/10/09 10:49:20;;;;;;;23.52;11.23;;;18.50;99.90;;;18.30;77.19;100938.28;5020438;28;20041;-82
2023/10/09 10:51:58;;;;;;;23.13;12.07;;;18.50;99.90;;;18.27;76.20;100947.69;5033114;28;20128;-83
2023/10/09 10:57:28;;;;;;;20.55;11.52;;;18.50;99.90;;;18.29;76.08;100950.13;5038394;28;20037;-82
2023/10/09 11:01:02;;;;;;;20.30;11.48;;;18.50;99.90;;;18.32;75.71;100951.53;5040527;28;20144;-82
2023/10/09 11:03:13;;;;;;;20.55;11.10;;;18.50;99.90;;;18.33;75.51;100943.16;5049928;28;20088;-82
2023/10/09 11:05:50;;;;;;;19.08;10.95;;;18.60;99.90;;;18.37;75.52;100944.28;5023785;28;20057;-82
2023/10/09 11:08:27;;;;;;;23.38;11.68;;;18.60;99.90;;;18.41;75.36;100947.31;5039815;28;20125;-82
2023/10/09 11:11:15;;;;;;;24.42;12.07;;;18.60;99.90;;;18.43;75.72;100951.38;5040244;28;20167;-82
2023/10/09 11:13:57;;;;;;;21.95;11.50;;;18.70;99.90;;;18.46;74.78;100942.78;5022757;28;20058;-82
2023/10/09 11:16:42;;;;;;;23.05;11.55;;;18.70;99.90;;;18.52;75.33;100949.88;5022062;28;20066;-83
2023/10/09 11:19:22;;;;;;;19.52;10.95;;;18.70;99.90;;;18.53;74.49;100945.28;5032255;28;20064;-83
2023/10/09 11:21:58;;;;;;;20.50;11.40;;;18.80;99.90;;;18.51;74.06;100942.84;5014782;28;20100;-83
2023/10/09 11:24:33;;;;;;;20.48;10.77;;;18.80;99.90;;;18.50;73.22;100948.50;5027964;28;20042;-84
2023/10/09 11:27:05;;;;;;;25.88;11.65;;;18.70;99.90;;;18.53;73.83;100954.19;5015370;28;20044;-85
2023/10/09 11:32:32;;;;;;;18.05;9.88;;;18.80;99.90;;;18.56;73.66;100949.38;5021798;28;20042;-84
2023/10/09 11:35:14;;;;;;;21.83;11.38;;;18.80;99.90;;;18.56;72.90;100944.78;5042332;28;20048;-84
2023/10/09 11:37:43;;;;;;;18.95;11.27;;;18.80;99.90;;;18.59;73.90;100951.56;5032666;28;20080;-88
2023/10/09 11:40:33;;;;;;;22.27;11.63;;;18.80;99.90;;;18.56;72.03;100952.09;5023327;28;20180;-85